createdAt,value
2024-05-09T04:46:31.311Z,100.00
2024-05-09T04:48:58.753Z,100.00
2024-05-09T04:51:26.114Z,99.32
2024-05-09T04:53:53.421Z,97.96
2024-05-09T04:56:20.894Z,95.13
2024-05-09T04:58:49.428Z,92.55
2024-05-09T05:01:16.982Z,89.39
2024-05-09T05:03:44.626Z,86.07
2024-05-09T05:06:12.054Z,82.71
2024-05-09T05:08:39.499Z,79.60
2024-05-09T05:11:07.438Z,77.91
2024-05-09T05:13:36.726Z,76.22
2024-05-09T05:16:08.733Z,74.61
2024-05-09T05:18:41.738Z,72.35
2024-05-09T05:21:16.218Z,70.75
2024-05-09T05:23:52.742Z,70.22
2024-05-09T05:26:21.177Z,69.34
2024-05-09T05:28:48.570Z,68.19
2024-05-09T05:31:16.150Z,67.04
2024-05-09T05:33:58.733Z,66.25
2024-05-09T05:36:26.245Z,64.95
2024-05-09T05:38:54.361Z,64.95
2024-05-09T05:41:21.752Z,64.09
2024-05-09T05:43:49.244Z,62.62
2024-05-09T05:46:20.190Z,61.67
2024-05-09T05:48:48.174Z,61.11
2024-05-09T05:51:15.591Z,59.35
2024-05-09T05:53:43.052Z,57.59
2024-05-09T05:56:10.433Z,55.30
2024-05-09T05:58:43.466Z,53.47
2024-05-09T06:01:11.426Z,53.02
2024-05-09T06:03:39.257Z,52.01
2024-05-09T06:06:06.816Z,50.76
2024-05-09T06:08:34.215Z,49.33
2024-05-09T06:11:01.793Z,48.47
2024-05-09T06:13:29.182Z,46.93
2024-05-09T06:15:56.557Z,46.12
2024-05-09T06:18:24.732Z,46.83
2024-05-09T06:20:52.751Z,46.30
2024-05-09T06:23:27.351Z,47.06
2024-05-09T06:26:04.457Z,47.67
2024-05-09T06:28:33.169Z,46.62
2024-05-09T06:31:03.610Z,46.16
2024-05-09T06:33:31.326Z,45.20
2024-05-09T06:36:03.803Z,45.64
2024-05-09T06:38:31.187Z,45.97
2024-05-09T06:41:00.876Z,44.97
2024-05-09T06:43:29.524Z,44.40
2024-05-09T06:45:57.171Z,43.99
2024-05-09T06:48:24.684Z,44.03
2024-05-09T06:50:52.281Z,44.12
2024-05-09T06:53:25.731Z,44.60
2024-05-09T06:55:53.834Z,43.75
2024-05-09T06:58:23.309Z,43.13
2024-05-09T07:00:50.806Z,42.88
2024-05-09T07:03:19.855Z,43.01
2024-05-09T07:05:49.161Z,43.36
2024-05-09T07:08:17.954Z,42.90
2024-05-09T07:10:48.588Z,42.63
2024-05-09T07:13:23.651Z,42.42
2024-05-09T07:19:48.735Z,43.46
2024-05-09T07:22:21.697Z,43.54
2024-05-09T07:25:12.670Z,42.31
2024-05-09T07:28:15.914Z,41.83
2024-05-09T07:31:16.807Z,39.42
2024-05-09T07:33:59.972Z,37.82
2024-05-09T07:37:15.385Z,38.32
2024-05-09T07:39:44.124Z,38.90
2024-05-09T07:42:11.545Z,38.73
2024-05-09T07:44:40.081Z,38.39
2024-05-09T07:48:14.588Z,38.19
2024-05-09T07:51:48.008Z,38.64
2024-05-09T07:53:35.295Z,38.50
2024-05-09T07:55:45.314Z,37.42
2024-05-09T07:58:19.380Z,37.01
2024-05-09T08:00:48.687Z,36.27
2024-05-09T08:03:16.370Z,36.71
2024-05-09T08:05:44.145Z,37.07
2024-05-09T08:08:11.707Z,36.75
2024-05-09T08:10:39.048Z,36.45
2024-05-09T08:13:06.546Z,36.13
2024-05-09T08:15:33.973Z,35.82
2024-05-09T08:18:02.035Z,34.52
2024-05-09T08:20:33.666Z,34.55
2024-05-09T08:23:03.041Z,35.44
2024-05-09T08:25:30.538Z,35.35
2024-05-09T08:27:58.052Z,35.55
2024-05-09T08:30:32.788Z,34.91
2024-05-09T08:33:06.099Z,34.52
2024-05-09T08:35:35.159Z,34.52
2024-05-09T08:38:03.163Z,34.64
2024-05-09T08:40:36.118Z,34.97
2024-05-09T08:43:12.513Z,34.32
2024-05-09T08:45:42.660Z,33.96
2024-05-09T08:48:13.120Z,33.93
2024-05-09T08:50:43.019Z,33.83
2024-05-09T08:53:10.672Z,33.33
2024-05-09T08:55:42.112Z,32.47
2024-05-09T08:58:20.550Z,32.39
2024-05-09T09:00:52.930Z,32.89
2024-05-09T09:03:26.959Z,32.74
2024-05-09T09:05:59.123Z,33.31
2024-05-09T09:08:26.433Z,34.22
2024-05-09T09:10:57.611Z,34.70
2024-05-09T09:13:28.261Z,34.80
2024-05-09T09:15:59.254Z,33.60
2024-05-09T09:18:27.490Z,33.35
2024-05-09T09:20:55.831Z,32.56
2024-05-09T09:23:23.595Z,33.25
2024-05-09T09:25:51.865Z,33.53
2024-05-09T09:28:20.575Z,33.93
2024-05-09T09:30:48.181Z,33.11
2024-05-09T09:33:18.852Z,31.73
2024-05-09T09:35:50.522Z,31.07
2024-05-09T09:38:20.838Z,32.45
2024-05-09T09:40:49.815Z,31.28
2024-05-09T09:43:22.253Z,31.90
2024-05-09T09:45:52.179Z,32.26
2024-05-09T09:48:20.179Z,32.46
2024-05-09T09:50:47.863Z,32.03
2024-05-09T09:53:16.010Z,33.22
2024-05-09T09:55:45.166Z,32.80
2024-05-09T09:58:14.768Z,32.35
2024-05-09T10:00:42.486Z,31.95
2024-05-09T10:03:10.908Z,32.70
2024-05-09T10:05:41.178Z,32.27
2024-05-09T10:08:10.588Z,31.50
2024-05-09T10:10:38.556Z,31.05
2024-05-09T10:16:44.666Z,31.85
2024-05-09T10:19:28.071Z,30.57
2024-05-09T10:22:00.513Z,30.26
2024-05-09T10:24:27.886Z,30.31
2024-05-09T10:26:55.749Z,29.26
2024-05-09T10:29:25.550Z,29.50
2024-05-09T10:31:53.057Z,29.75
2024-05-09T10:34:21.020Z,29.65
2024-05-09T10:36:52.765Z,29.75
2024-05-09T10:39:20.521Z,30.21
2024-05-09T10:41:48.868Z,30.28
2024-05-09T10:44:17.029Z,30.32
2024-05-09T10:46:45.499Z,29.58
2024-05-09T10:49:16.396Z,29.69
2024-05-09T10:51:44.774Z,30.05
2024-05-09T10:54:13.022Z,29.90
2024-05-09T10:56:41.872Z,30.19
2024-05-09T10:59:09.300Z,30.08
2024-05-09T11:01:37.057Z,30.11
2024-05-09T11:04:04.694Z,30.67
2024-05-09T11:06:34.806Z,31.38
2024-05-09T11:09:02.230Z,30.88
2024-05-09T11:11:30.163Z,31.01
2024-05-09T11:13:57.543Z,30.51
2024-05-09T11:16:25.022Z,31.00
2024-05-09T11:18:53.293Z,31.40
2024-05-09T11:21:20.933Z,31.26
2024-05-09T11:23:48.348Z,31.25
2024-05-09T11:26:17.023Z,32.08
2024-05-09T11:28:44.828Z,32.04
2024-05-09T11:31:12.535Z,31.52
2024-05-09T11:33:40.801Z,31.70
2024-05-09T11:36:08.610Z,31.45
2024-05-09T11:38:36.058Z,31.46
2024-05-09T11:41:03.637Z,32.00
2024-05-09T11:43:31.218Z,33.16
2024-05-09T11:45:58.807Z,32.20
2024-05-09T11:48:26.792Z,31.27
2024-05-09T11:50:54.720Z,32.92
2024-05-09T11:53:22.086Z,32.21
2024-05-09T11:56:07.553Z,32.28
2024-05-09T11:58:53.110Z,32.11
2024-05-09T12:02:39.849Z,32.08
2024-05-09T12:05:31.210Z,33.13
2024-05-09T12:08:35.006Z,32.59
2024-05-09T12:11:20.416Z,31.82
2024-05-09T12:14:05.965Z,31.50
2024-05-09T12:16:39.496Z,31.68
2024-05-09T12:19:31.155Z,32.14
2024-05-09T12:21:58.502Z,32.50
2024-05-09T12:24:28.692Z,32.48
2024-05-09T12:26:56.025Z,32.69
2024-05-09T12:29:23.332Z,32.61
2024-05-09T12:31:50.768Z,33.14
2024-05-09T12:34:18.077Z,33.09
2024-05-09T12:36:45.423Z,32.71
2024-05-09T12:39:12.717Z,32.53
2024-05-09T12:41:39.996Z,32.53
2024-05-09T12:44:07.232Z,32.04
2024-05-09T12:46:34.584Z,32.59
2024-05-09T12:49:02.138Z,33.29
2024-05-09T12:51:31.053Z,33.21
2024-05-09T12:53:58.314Z,32.88
2024-05-09T12:56:25.585Z,32.84
2024-05-09T12:58:52.892Z,32.57
2024-05-09T13:01:20.214Z,32.75
2024-05-09T13:03:47.640Z,32.30
2024-05-09T13:06:15.122Z,31.99
2024-05-09T13:08:42.426Z,32.12
2024-05-09T13:11:09.694Z,32.50
2024-05-09T13:13:37.094Z,31.97
2024-05-09T13:16:04.555Z,31.98
2024-05-09T13:18:33.234Z,31.92
2024-05-09T13:21:00.578Z,31.61
2024-05-09T13:23:27.818Z,31.07
2024-05-09T13:25:55.068Z,31.39
2024-05-09T13:28:22.696Z,32.04
2024-05-09T13:30:50.104Z,32.43
2024-05-09T13:33:17.610Z,32.21
2024-05-09T13:35:49.028Z,30.69
2024-05-09T13:38:18.148Z,30.67
2024-05-09T13:40:45.807Z,31.28
2024-05-09T13:43:13.462Z,31.56
2024-05-09T13:45:40.849Z,31.65
2024-05-09T13:48:09.529Z,30.97
2024-05-09T13:50:37.307Z,31.36
2024-05-09T13:53:06.331Z,31.10
2024-05-09T13:55:36.750Z,31.16
2024-05-09T13:58:04.222Z,29.95
2024-05-09T14:00:42.410Z,29.99
2024-05-09T14:03:16.360Z,30.27
2024-05-09T14:05:45.309Z,30.54
2024-05-09T14:08:14.980Z,31.09
2024-05-09T14:10:44.309Z,31.41
2024-05-09T14:13:12.525Z,31.18
2024-05-09T14:15:40.232Z,31.14
2024-05-09T14:18:11.436Z,31.67
2024-05-09T14:20:41.253Z,31.35
2024-05-09T14:23:08.626Z,31.22
